createdAt,value
2023-02-20T00:01:24.324Z,8.37
2023-02-20T00:03:51.361Z,8.25
2023-02-20T00:06:18.140Z,8.32
2023-02-20T00:08:44.982Z,8.29
2023-02-20T00:11:11.627Z,8.24
2023-02-20T00:13:38.426Z,8.21
2023-02-20T00:16:05.316Z,8.17
2023-02-20T00:18:31.978Z,8.16
2023-02-20T00:20:58.727Z,8.08
2023-02-20T00:23:25.233Z,8.01
2023-02-20T00:25:51.727Z,8.00
2023-02-20T00:28:18.353Z,7.99
2023-02-20T00:30:45.112Z,8.01
2023-02-20T00:33:13.608Z,8.02
2023-02-20T00:35:40.602Z,8.01
2023-02-20T00:38:07.410Z,7.99
2023-02-20T00:40:34.305Z,7.97
2023-02-20T00:43:01.689Z,7.92
2023-02-20T00:45:28.325Z,7.90
2023-02-20T00:47:55.563Z,7.90
2023-02-20T00:50:24.152Z,7.90
2023-02-20T00:52:51.023Z,7.86
2023-02-20T00:55:17.609Z,7.82
2023-02-20T00:57:45.774Z,7.78
2023-02-20T01:00:21.135Z,7.64
2023-02-20T01:02:48.009Z,7.63
2023-02-20T01:05:20.088Z,7.55
2023-02-20T01:07:54.311Z,7.48
2023-02-20T01:10:21.065Z,7.45
2023-02-20T01:12:47.598Z,7.41
2023-02-20T01:15:16.922Z,7.33
2023-02-20T01:17:43.681Z,7.31
2023-02-20T01:20:11.356Z,7.28
2023-02-20T01:22:38.181Z,7.22
2023-02-20T01:25:05.130Z,7.13
2023-02-20T01:27:50.723Z,7.08
2023-02-20T01:30:21.302Z,7.00
2023-02-20T01:32:48.486Z,6.96
2023-02-20T01:35:19.392Z,6.89
2023-02-20T01:37:47.035Z,6.85
2023-02-20T01:40:21.050Z,6.80
2023-02-20T01:42:47.974Z,6.79
2023-02-20T01:45:47.306Z,6.73
2023-02-20T01:48:47.794Z,6.77
2023-02-20T01:51:18.064Z,6.77
2023-02-20T01:54:30.837Z,6.76
2023-02-20T01:57:01.232Z,6.70
2023-02-20T01:59:33.836Z,6.67
2023-02-20T02:02:00.767Z,6.64
2023-02-20T02:04:27.615Z,6.67
2023-02-20T02:07:00.413Z,6.66
2023-02-20T02:10:00.382Z,6.63
2023-02-20T02:12:28.468Z,6.64
2023-02-20T02:14:55.315Z,6.63
2023-02-20T02:17:30.002Z,6.66
2023-02-20T02:20:33.943Z,6.68
2023-02-20T02:23:09.698Z,6.67
2023-02-20T02:25:51.176Z,6.64
2023-02-20T02:28:59.124Z,6.64
2023-02-20T02:32:11.379Z,6.67
2023-02-20T02:35:13.905Z,6.61
2023-02-20T02:37:48.655Z,6.64
2023-02-20T02:40:21.576Z,6.62
2023-02-20T02:42:54.589Z,6.53
2023-02-20T02:45:41.149Z,6.53
2023-02-20T02:48:22.647Z,6.56
2023-02-20T02:50:49.524Z,6.55
2023-02-20T02:53:16.132Z,6.51
2023-02-20T02:59:33.323Z,6.61
2023-02-20T03:02:28.817Z,6.61
2023-02-20T03:05:25.189Z,6.56
2023-02-20T03:11:01.306Z,6.55
2023-02-20T03:14:28.710Z,6.49
2023-02-20T03:17:26.543Z,6.48
2023-02-20T03:19:54.722Z,6.48
2023-02-20T03:25:34.891Z,6.54
2023-02-20T03:28:08.466Z,6.54
2023-02-20T03:31:03.428Z,6.56
2023-02-20T03:33:55.900Z,6.59
2023-02-20T03:36:50.424Z,6.55
2023-02-20T03:39:44.183Z,6.56
2023-02-20T03:42:31.295Z,6.54
2023-02-20T03:45:06.598Z,6.53
2023-02-20T03:47:35.665Z,6.47
2023-02-20T03:50:24.288Z,6.58
2023-02-20T03:52:52.008Z,6.55
2023-02-20T03:55:18.574Z,6.56
2023-02-20T03:57:50.201Z,6.58
2023-02-20T04:00:20.370Z,6.58
2023-02-20T04:02:54.317Z,6.56
2023-02-20T04:05:26.388Z,6.54
2023-02-20T04:08:00.238Z,6.60
2023-02-20T04:10:34.637Z,6.56
2023-02-20T04:13:02.236Z,6.48
2023-02-20T04:15:31.399Z,6.47
2023-02-20T04:18:03.506Z,6.48
2023-02-20T04:20:31.073Z,6.46
2023-02-20T04:23:10.591Z,6.46
2023-02-20T04:25:53.650Z,6.38
2023-02-20T04:28:20.992Z,6.36
2023-02-20T04:30:54.911Z,6.36
2023-02-20T04:33:21.765Z,6.35
2023-02-20T04:35:50.028Z,6.30
2023-02-20T04:38:17.484Z,6.33
2023-02-20T04:40:44.162Z,6.25
2023-02-20T04:43:24.739Z,6.26
2023-02-20T04:46:03.862Z,6.26
2023-02-20T04:48:33.072Z,6.22
2023-02-20T04:51:02.971Z,6.20
2023-02-20T04:53:31.798Z,6.14
2023-02-20T04:55:59.055Z,6.12
2023-02-20T04:58:26.672Z,6.10
2023-02-20T05:01:03.804Z,6.09
2023-02-20T05:03:30.420Z,6.06
2023-02-20T05:05:57.107Z,6.04
2023-02-20T05:08:23.602Z,6.01
2023-02-20T05:10:50.171Z,6.01
2023-02-20T05:13:16.648Z,5.96
2023-02-20T05:15:43.161Z,5.96
2023-02-20T05:18:09.604Z,5.97
2023-02-20T05:20:54.943Z,5.94
2023-02-20T05:23:21.435Z,5.93
2023-02-20T05:25:47.881Z,5.89
2023-02-20T05:28:14.659Z,5.86
2023-02-20T05:30:41.230Z,5.88
2023-02-20T05:33:07.826Z,5.85
2023-02-20T05:35:35.855Z,5.83
2023-02-20T05:38:02.345Z,5.81
2023-02-20T05:40:28.844Z,5.80
2023-02-20T05:42:55.501Z,5.76
2023-02-20T05:45:21.923Z,5.78
2023-02-20T05:47:48.337Z,5.76
2023-02-20T05:50:14.864Z,5.73
2023-02-20T05:52:42.022Z,5.73
2023-02-20T05:55:08.692Z,5.73
2023-02-20T05:57:35.188Z,5.72
2023-02-20T06:00:01.655Z,5.75
2023-02-20T06:02:38.304Z,5.74
2023-02-20T06:05:07.981Z,5.75
2023-02-20T06:07:35.241Z,5.76
2023-02-20T06:10:02.013Z,5.73
2023-02-20T06:12:28.505Z,5.67
2023-02-20T06:14:55.007Z,5.69
2023-02-20T06:17:21.473Z,5.69
2023-02-20T06:19:49.958Z,5.65
2023-02-20T06:22:17.490Z,5.68
2023-02-20T06:24:47.832Z,5.71
2023-02-20T06:27:15.288Z,5.65
2023-02-20T06:29:41.841Z,5.69
2023-02-20T06:32:08.472Z,5.71
2023-02-20T06:34:35.132Z,5.69
2023-02-20T06:37:03.112Z,5.70
2023-02-20T06:39:30.468Z,5.71
2023-02-20T06:41:56.970Z,5.75
2023-02-20T06:44:23.478Z,5.76
2023-02-20T06:46:50.103Z,5.76
2023-02-20T06:49:16.682Z,5.79
2023-02-20T06:51:43.272Z,5.79
2023-02-20T06:54:12.352Z,5.83
2023-02-20T06:56:38.915Z,5.82
2023-02-20T06:59:06.853Z,5.87
2023-02-20T07:01:41.605Z,5.91
2023-02-20T07:04:27.339Z,5.97
2023-02-20T07:06:54.348Z,5.99
2023-02-20T07:09:20.843Z,6.01
2023-02-20T07:11:48.913Z,6.02
2023-02-20T07:14:15.356Z,6.01
2023-02-20T07:16:41.860Z,6.00
2023-02-20T07:19:08.319Z,6.02
2023-02-20T07:21:34.784Z,6.03
2023-02-20T07:24:01.248Z,6.06
2023-02-20T07:26:29.364Z,6.05
2023-02-20T07:29:00.667Z,6.07
2023-02-20T07:31:27.882Z,6.07
2023-02-20T07:33:54.408Z,6.09
2023-02-20T07:36:21.040Z,6.03
2023-02-20T07:38:59.593Z,6.06
2023-02-20T07:41:29.466Z,6.07
2023-02-20T07:43:56.256Z,6.12
2023-02-20T07:46:22.688Z,6.15
2023-02-20T07:48:49.105Z,6.21
2023-02-20T07:51:15.771Z,6.25
2023-02-20T07:53:49.750Z,6.31
2023-02-20T07:56:16.614Z,6.35
2023-02-20T07:58:43.109Z,6.43
2023-02-20T08:01:09.522Z,6.49
2023-02-20T08:03:36.039Z,6.59
2023-02-20T08:06:02.896Z,6.65
2023-02-20T08:08:29.407Z,6.71
2023-02-20T08:11:03.533Z,6.80
2023-02-20T08:13:35.002Z,6.88
2023-02-20T08:16:01.407Z,6.94
2023-02-20T08:18:27.864Z,6.98
2023-02-20T08:20:54.303Z,7.02
2023-02-20T08:23:22.240Z,7.05
2023-02-20T08:25:48.739Z,7.10
2023-02-20T08:28:15.237Z,7.12
2023-02-20T08:30:41.909Z,7.15
2023-02-20T08:33:08.372Z,7.17
2023-02-20T08:35:35.370Z,7.20
2023-02-20T08:38:03.713Z,7.21
2023-02-20T08:40:30.195Z,7.18
2023-02-20T08:42:56.640Z,7.20
2023-02-20T08:45:23.648Z,7.24
2023-02-20T08:47:50.557Z,7.26
2023-02-20T08:50:18.490Z,7.34
2023-02-20T08:52:45.172Z,7.38
2023-02-20T08:55:12.661Z,7.41
2023-02-20T08:57:39.111Z,7.47
2023-02-20T09:00:06.410Z,7.53
2023-02-20T09:02:33.126Z,7.59
2023-02-20T09:04:59.591Z,7.62
2023-02-20T09:07:26.618Z,7.66
2023-02-20T09:09:53.194Z,7.69
2023-02-20T09:12:20.082Z,7.73
2023-02-20T09:14:46.734Z,7.76
2023-02-20T09:17:13.268Z,7.75
2023-02-20T09:19:39.704Z,7.80
2023-02-20T09:22:06.119Z,7.79
2023-02-20T09:24:34.124Z,7.80
2023-02-20T09:27:01.736Z,7.81
2023-02-20T09:29:28.321Z,7.81
2023-02-20T09:31:55.003Z,7.77
2023-02-20T09:34:21.818Z,7.79
2023-02-20T09:36:48.305Z,7.78
2023-02-20T09:39:17.892Z,7.78
2023-02-20T09:41:54.738Z,7.78
2023-02-20T09:44:29.182Z,7.80
2023-02-20T09:47:03.280Z,7.82
2023-02-20T09:49:33.934Z,7.86
2023-02-20T09:52:02.904Z,7.93
2023-02-20T09:54:33.141Z,7.95
2023-02-20T09:57:02.083Z,8.01
2023-02-20T09:59:40.964Z,8.08
2023-02-20T10:02:16.605Z,8.12
2023-02-20T10:05:00.058Z,8.17
2023-02-20T10:07:36.058Z,8.19
2023-02-20T10:10:19.367Z,8.24
2023-02-20T10:12:57.034Z,8.29
2023-02-20T10:15:35.306Z,8.33
2023-02-20T10:18:25.976Z,8.35
2023-02-20T10:21:03.948Z,8.40
2023-02-20T10:24:04.914Z,8.45
2023-02-20T10:26:44.684Z,8.49
2023-02-20T10:29:15.066Z,8.56
2023-02-20T10:31:45.847Z,8.60
2023-02-20T10:34:34.555Z,8.66
2023-02-20T10:37:05.695Z,8.71
2023-02-20T10:39:32.535Z,8.78
2023-02-20T10:42:16.689Z,8.82
2023-02-20T10:44:52.254Z,8.89
2023-02-20T10:47:38.970Z,8.96
2023-02-20T10:50:10.016Z,9.02
2023-02-20T10:52:46.022Z,9.11
2023-02-20T10:55:21.117Z,9.18
2023-02-20T10:57:59.937Z,9.29
2023-02-20T11:00:33.794Z,9.34
2023-02-20T11:03:06.250Z,9.39
2023-02-20T11:05:38.082Z,9.46
2023-02-20T11:08:04.612Z,9.57
2023-02-20T11:10:32.322Z,9.60
2023-02-20T11:13:02.775Z,9.65
2023-02-20T11:15:32.582Z,9.75
2023-02-20T11:17:59.885Z,9.81
2023-02-20T11:20:32.403Z,9.95
2023-02-20T11:23:01.344Z,10.04
2023-02-20T11:25:34.179Z,10.15
2023-02-20T11:28:11.641Z,10.20
2023-02-20T11:30:42.784Z,10.25
2023-02-20T11:33:17.734Z,10.30
2023-02-20T11:35:56.561Z,10.32
2023-02-20T11:38:22.891Z,10.37
2023-02-20T11:41:01.557Z,10.43
2023-02-20T11:43:32.447Z,10.52
2023-02-20T11:46:09.525Z,10.59
2023-02-20T11:48:39.781Z,10.69
2023-02-20T11:51:31.054Z,10.80
2023-02-20T11:54:18.103Z,10.90
2023-02-20T11:57:02.923Z,10.95
2023-02-20T11:59:31.209Z,11.00
2023-02-20T12:02:22.790Z,11.02
2023-02-20T12:05:11.019Z,11.08
2023-02-20T12:07:56.417Z,11.15
2023-02-20T12:10:30.768Z,11.21
2023-02-20T12:12:57.880Z,11.22
2023-02-20T12:15:27.661Z,11.27
2023-02-20T12:17:54.002Z,11.36
2023-02-20T12:20:25.671Z,11.34
2023-02-20T12:23:00.865Z,11.34
2023-02-20T12:25:31.729Z,11.38
2023-02-20T12:28:06.323Z,11.46
2023-02-20T12:31:01.006Z,11.48
2023-02-20T12:33:48.451Z,11.49
2023-02-20T12:36:27.995Z,11.48
2023-02-20T12:38:57.549Z,11.53
2023-02-20T12:41:48.846Z,11.55
2023-02-20T12:44:37.366Z,11.57
2023-02-20T12:47:36.143Z,11.59
2023-02-20T12:50:33.261Z,11.61
2023-02-20T12:53:19.633Z,11.65
2023-02-20T12:56:11.705Z,11.70
2023-02-20T12:58:48.892Z,11.76
2023-02-20T13:01:21.002Z,11.76
2023-02-20T13:04:04.429Z,11.76
2023-02-20T13:06:40.774Z,11.73
2023-02-20T13:09:13.512Z,11.74
2023-02-20T13:11:44.817Z,11.69
2023-02-20T13:14:13.877Z,11.74
2023-02-20T13:16:48.613Z,11.79
2023-02-20T13:19:18.080Z,11.78
2023-02-20T13:21:44.650Z,11.83
2023-02-20T13:24:19.873Z,11.85
2023-02-20T13:26:48.200Z,11.86
2023-02-20T13:29:22.616Z,11.88
2023-02-20T13:31:55.084Z,11.88
2023-02-20T13:34:34.049Z,11.87
2023-02-20T13:37:01.305Z,11.84
2023-02-20T13:39:48.021Z,11.83
2023-02-20T13:42:29.937Z,11.79
2023-02-20T13:44:57.217Z,11.83
2023-02-20T13:47:30.031Z,11.82
2023-02-20T13:49:59.032Z,11.87
2023-02-20T13:52:36.190Z,11.90
2023-02-20T13:55:15.908Z,11.90
2023-02-20T13:58:12.702Z,11.90
2023-02-20T14:00:48.401Z,11.94
2023-02-20T14:03:23.952Z,11.95
2023-02-20T14:06:04.675Z,12.01
2023-02-20T14:08:31.232Z,12.02
2023-02-20T14:11:26.517Z,12.06
2023-02-20T14:13:53.747Z,12.08
2023-02-20T14:16:31.050Z,12.12
2023-02-20T14:18:59.078Z,12.20
2023-02-20T14:21:25.809Z,12.27
2023-02-20T14:23:52.965Z,12.34
2023-02-20T14:26:33.720Z,12.41
2023-02-20T14:29:00.695Z,12.39
2023-02-20T14:31:35.832Z,12.39
2023-02-20T14:34:08.957Z,12.43
2023-02-20T14:36:54.685Z,12.46
2023-02-20T14:39:44.068Z,12.52
2023-02-20T14:42:15.893Z,12.60
2023-02-20T14:44:42.410Z,12.69
2023-02-20T14:47:12.379Z,12.74
2023-02-20T14:49:39.004Z,12.79
2023-02-20T14:52:22.145Z,12.84
2023-02-20T14:55:03.514Z,12.96
2023-02-20T14:57:30.560Z,13.00
2023-02-20T15:00:20.468Z,13.00
2023-02-20T15:02:48.562Z,13.01
2023-02-20T15:05:19.594Z,13.04
2023-02-20T15:07:46.483Z,13.08
2023-02-20T15:10:34.176Z,13.10
2023-02-20T15:13:06.497Z,13.11
2023-02-20T15:15:38.600Z,13.09
2023-02-20T15:18:17.600Z,13.12
2023-02-20T15:20:48.189Z,13.18
2023-02-20T15:23:28.300Z,13.20
2023-02-20T15:25:54.915Z,13.24
2023-02-20T15:28:23.116Z,13.27
2023-02-20T15:31:09.669Z,13.28
2023-02-20T15:33:39.213Z,13.30
2023-02-20T15:36:07.071Z,13.26
2023-02-20T15:38:34.659Z,13.26
2023-02-20T15:41:03.480Z,13.27
2023-02-20T15:43:45.161Z,13.24
2023-02-20T15:46:14.465Z,13.27
2023-02-20T15:48:41.223Z,13.26
2023-02-20T15:51:09.133Z,13.21
2023-02-20T15:53:35.940Z,13.18
2023-02-20T15:56:02.871Z,13.16
2023-02-20T15:58:35.200Z,13.14
2023-02-20T16:01:02.031Z,13.11
2023-02-20T16:03:33.946Z,13.10
2023-02-20T16:06:05.566Z,13.09
2023-02-20T16:08:32.082Z,13.07
2023-02-20T16:10:58.607Z,13.04
2023-02-20T16:13:37.535Z,12.99
2023-02-20T16:16:23.239Z,12.94
2023-02-20T16:18:52.561Z,12.91
2023-02-20T16:21:20.507Z,12.87
2023-02-20T16:23:49.706Z,12.83
2023-02-20T16:26:20.489Z,12.78
2023-02-20T16:28:55.049Z,12.70
2023-02-20T16:31:21.655Z,12.62
2023-02-20T16:33:49.285Z,12.50
2023-02-20T16:36:24.246Z,12.43
2023-02-20T16:38:51.364Z,12.38
2023-02-20T16:41:17.878Z,12.31
2023-02-20T16:43:44.474Z,12.22
2023-02-20T16:46:11.005Z,12.13
2023-02-20T16:48:37.576Z,12.00
2023-02-20T16:51:06.187Z,11.91
2023-02-20T16:53:32.806Z,11.78
2023-02-20T16:55:59.304Z,11.68
2023-02-20T16:58:25.882Z,11.60
2023-02-20T17:00:57.661Z,11.47
2023-02-20T17:03:25.191Z,11.34
2023-02-20T17:05:58.185Z,11.19
2023-02-20T17:08:25.678Z,11.07
2023-02-20T17:10:52.107Z,10.94
2023-02-20T17:13:18.603Z,10.82
2023-02-20T17:15:47.459Z,10.76
2023-02-20T17:18:14.916Z,10.70
2023-02-20T17:20:41.460Z,10.64
2023-02-20T17:23:07.852Z,10.58
2023-02-20T17:25:34.845Z,10.54
2023-02-20T17:28:01.758Z,10.60
2023-02-20T17:30:28.343Z,10.70
2023-02-20T17:32:54.803Z,10.76
2023-02-20T17:35:21.269Z,10.82
2023-02-20T17:37:47.728Z,10.85
2023-02-20T17:40:15.554Z,10.88
2023-02-20T17:42:42.046Z,10.88
2023-02-20T17:45:09.113Z,10.86
2023-02-20T17:47:37.216Z,10.82
2023-02-20T17:50:03.894Z,10.77
2023-02-20T17:52:30.310Z,10.74
2023-02-20T17:54:56.770Z,10.72
2023-02-20T17:57:23.342Z,10.76
2023-02-20T17:59:49.962Z,10.76
2023-02-20T18:02:17.427Z,10.75
2023-02-20T18:04:44.194Z,10.78
2023-02-20T18:07:11.531Z,10.80
2023-02-20T18:09:38.588Z,10.77
2023-02-20T18:12:05.637Z,10.76
2023-02-20T18:14:32.276Z,10.74
2023-02-20T18:16:58.704Z,10.75
2023-02-20T18:19:25.410Z,10.71
2023-02-20T18:21:52.701Z,10.68
2023-02-20T18:24:24.451Z,10.69
2023-02-20T18:26:52.422Z,10.69
2023-02-20T18:29:19.056Z,10.69
2023-02-20T18:31:45.540Z,10.68
2023-02-20T18:34:12.155Z,10.68
2023-02-20T18:36:38.941Z,10.66
2023-02-20T18:39:05.854Z,10.65
2023-02-20T18:41:32.358Z,10.64
2023-02-20T18:43:58.828Z,10.66
2023-02-20T18:46:30.224Z,10.65
2023-02-20T18:48:58.717Z,10.62
2023-02-20T18:51:27.160Z,10.60
2023-02-20T18:53:53.672Z,10.54
2023-02-20T18:56:20.082Z,10.52
2023-02-20T18:58:46.511Z,10.51
2023-02-20T19:01:19.545Z,10.48
2023-02-20T19:03:47.700Z,10.51
2023-02-20T19:06:46.361Z,10.49
2023-02-20T19:09:38.085Z,10.50
2023-02-20T19:12:09.406Z,10.49
2023-02-20T19:14:35.837Z,10.45
2023-02-20T19:17:03.041Z,10.46
2023-02-20T19:19:31.098Z,10.40
2023-02-20T19:21:58.672Z,10.38
2023-02-20T19:24:25.097Z,10.28
2023-02-20T19:26:51.685Z,10.23
2023-02-20T19:29:18.351Z,10.15
2023-02-20T19:31:44.908Z,10.19
2023-02-20T19:34:14.602Z,10.17
2023-02-20T19:36:41.650Z,10.14
2023-02-20T19:39:09.632Z,10.09
2023-02-20T19:41:37.904Z,10.08
2023-02-20T19:44:04.419Z,10.05
2023-02-20T19:46:31.258Z,10.04
2023-02-20T19:48:58.043Z,10.03
2023-02-20T19:51:24.897Z,10.02
2023-02-20T19:53:51.970Z,9.99
2023-02-20T19:56:20.867Z,9.95
2023-02-20T19:58:47.701Z,9.82
2023-02-20T20:01:16.361Z,9.77
2023-02-20T20:03:44.715Z,9.89
2023-02-20T20:06:12.457Z,9.77
2023-02-20T20:08:43.702Z,9.86
2023-02-20T20:11:18.721Z,9.80
2023-02-20T20:13:45.663Z,9.81
2023-02-20T20:16:12.581Z,9.83
2023-02-20T20:18:39.391Z,9.90
2023-02-20T20:21:06.501Z,9.86
2023-02-20T20:23:33.314Z,9.81
2023-02-20T20:26:00.146Z,9.76
2023-02-20T20:28:26.769Z,9.73
2023-02-20T20:30:53.820Z,9.69
2023-02-20T20:33:20.673Z,9.61
2023-02-20T20:35:47.813Z,9.62
2023-02-20T20:38:14.619Z,9.61
2023-02-20T20:40:42.299Z,9.67
2023-02-20T20:43:10.911Z,9.54
2023-02-20T20:45:37.765Z,9.54
2023-02-20T20:48:04.857Z,9.51
2023-02-20T20:50:31.890Z,9.46
2023-02-20T20:53:00.916Z,9.35
2023-02-20T20:55:28.857Z,9.38
2023-02-20T20:57:56.016Z,9.32
2023-02-20T21:00:29.567Z,9.31
2023-02-20T21:02:57.104Z,9.35
2023-02-20T21:05:29.233Z,9.33
2023-02-20T21:07:56.572Z,9.30
2023-02-20T21:10:24.031Z,9.28
2023-02-20T21:12:51.626Z,9.26
2023-02-20T21:15:20.221Z,9.23
2023-02-20T21:17:50.028Z,9.20
2023-02-20T21:20:19.851Z,9.23
2023-02-20T21:22:51.145Z,9.23
2023-02-20T21:25:19.598Z,9.28
2023-02-20T21:27:46.803Z,9.21
2023-02-20T21:30:14.901Z,9.15
2023-02-20T21:32:41.826Z,9.20
2023-02-20T21:35:09.086Z,9.26
2023-02-20T21:37:36.026Z,9.23
2023-02-20T21:40:03.810Z,9.09
2023-02-20T21:42:51.707Z,9.06
2023-02-20T21:45:21.809Z,9.06
2023-02-20T21:47:49.092Z,9.15
2023-02-20T21:53:20.954Z,9.00
2023-02-20T21:55:48.754Z,9.01
2023-02-20T21:58:16.191Z,9.04
2023-02-20T22:00:43.008Z,9.08
2023-02-20T22:03:10.186Z,9.01
2023-02-20T22:05:37.234Z,8.96
2023-02-20T22:08:23.156Z,9.09
2023-02-20T22:11:08.538Z,9.01
2023-02-20T22:13:57.664Z,8.98
2023-02-20T22:16:43.508Z,9.00
2023-02-20T22:19:29.355Z,8.99
2023-02-20T22:22:19.369Z,9.02
2023-02-20T22:25:05.794Z,9.01
2023-02-20T22:27:51.088Z,8.97
2023-02-20T22:30:39.326Z,8.95
2023-02-20T22:33:24.638Z,8.95
2023-02-20T22:36:09.878Z,8.92
2023-02-20T22:38:55.031Z,8.89
2023-02-20T22:41:40.903Z,8.80
2023-02-20T22:44:29.200Z,8.84
2023-02-20T22:47:15.232Z,8.90
2023-02-20T22:50:00.334Z,8.84
2023-02-20T22:52:46.052Z,8.83
2023-02-20T22:55:31.400Z,8.68
2023-02-20T22:58:18.996Z,8.78
2023-02-20T23:01:04.045Z,8.78
2023-02-20T23:03:49.077Z,8.76
2023-02-20T23:06:40.195Z,8.77
2023-02-20T23:09:26.362Z,8.75
2023-02-20T23:12:15.831Z,8.68
2023-02-20T23:15:00.977Z,8.69
2023-02-20T23:17:46.160Z,8.61
2023-02-20T23:20:34.305Z,8.51
2023-02-20T23:23:20.129Z,8.53
2023-02-20T23:26:05.334Z,8.49
2023-02-20T23:28:50.598Z,8.46
2023-02-20T23:31:36.779Z,8.39
2023-02-20T23:34:22.696Z,8.35
2023-02-20T23:37:09.884Z,8.36
2023-02-20T23:39:55.056Z,8.32
2023-02-20T23:42:40.619Z,8.27
2023-02-20T23:45:29.366Z,8.20
2023-02-20T23:48:14.685Z,8.16
2023-02-20T23:51:00.170Z,8.15
2023-02-20T23:53:45.365Z,8.14
2023-02-20T23:56:31.088Z,8.16
2023-02-20T23:59:16.253Z,8.06
